KPPF/PPF METAR and TAF weather

Enter ICAO airport designator
Station Type Date Time Source
KPPF METAR 2020/07/15 01:52 UTC NOAA

KPPF 150152Z AUTO 00000KT 10SM CLR 29/23 A2985 RMK AO2 SLP097 T02890233


Station Type Date Time Source
KPPF Decoded METAR 2020/07/15 01:52 UTC NOAA

PARSONS TRI-CITY AIRPORT, KS, United States (KPPF) 37-20N 95-30W 274M
Jul 14, 2020 - 09:52 PM EDT / 2020.07.15 0152 UTC
Wind: Calm:0
Visibility: 10 mile(s):0
Sky conditions: clear
Temperature: 84.0 F (28.9 C)
Dew Point: 73.9 F (23.3 C)
Relative Humidity: 71%
Pressure (altimeter): 29.85 in. Hg (1010 hPa)
ob: KPPF 150152Z AUTO 00000KT 10SM CLR 29/23 A2985 RMK AO2 SLP097 T02890233
cycle: 2

Station Type Date Time Source
KPPF TAF UTC NOAA

Error!

Example: see airport list